sensor_id;sensor_type;location;lat;lon;timestamp;P1;durP1;ratioP1;P2;durP2;ratioP2
64235;SDS011;50564;47.402;9.740;2022-07-22T00:00:34;17.30;;;10.38;;
64235;SDS011;50564;47.402;9.740;2022-07-22T00:05:35;10.35;;;8.88;;
64235;SDS011;50564;47.402;9.740;2022-07-22T00:10:35;10.20;;;9.10;;
64235;SDS011;50564;47.402;9.740;2022-07-22T00:15:36;12.70;;;8.43;;
64235;SDS011;50564;47.402;9.740;2022-07-22T00:20:37;12.25;;;9.75;;
64235;SDS011;50564;47.402;9.740;2022-07-22T00:25:38;11.15;;;8.82;;
64235;SDS011;50564;47.402;9.740;2022-07-22T00:30:39;10.10;;;8.80;;
64235;SDS011;50564;47.402;9.740;2022-07-22T00:35:39;10.23;;;9.10;;
64235;SDS011;50564;47.402;9.740;2022-07-22T00:40:40;9.98;;;8.90;;
64235;SDS011;50564;47.402;9.740;2022-07-22T00:45:40;10.02;;;8.93;;
64235;SDS011;50564;47.402;9.740;2022-07-22T00:50:41;10.20;;;8.90;;
64235;SDS011;50564;47.402;9.740;2022-07-22T00:55:43;10.27;;;9.18;;
64235;SDS011;50564;47.402;9.740;2022-07-22T01:00:44;13.77;;;10.07;;
64235;SDS011;50564;47.402;9.740;2022-07-22T01:05:45;10.15;;;9.15;;
64235;SDS011;50564;47.402;9.740;2022-07-22T01:10:46;10.98;;;9.52;;
64235;SDS011;50564;47.402;9.740;2022-07-22T01:15:47;11.65;;;9.15;;
64235;SDS011;50564;47.402;9.740;2022-07-22T01:20:48;9.63;;;8.60;;
64235;SDS011;50564;47.402;9.740;2022-07-22T01:25:48;11.05;;;9.93;;
64235;SDS011;50564;47.402;9.740;2022-07-22T01:30:49;10.50;;;9.25;;
64235;SDS011;50564;47.402;9.740;2022-07-22T01:35:50;11.95;;;9.90;;
64235;SDS011;50564;47.402;9.740;2022-07-22T01:40:51;11.50;;;9.43;;
64235;SDS011;50564;47.402;9.740;2022-07-22T01:45:52;11.15;;;9.18;;
64235;SDS011;50564;47.402;9.740;2022-07-22T01:50:54;12.85;;;9.88;;
64235;SDS011;50564;47.402;9.740;2022-07-22T01:55:56;10.55;;;9.43;;
64235;SDS011;50564;47.402;9.740;2022-07-22T02:00:58;11.75;;;9.40;;
64235;SDS011;50564;47.402;9.740;2022-07-22T02:05:59;10.13;;;9.07;;
64235;SDS011;50564;47.402;9.740;2022-07-22T02:11:02;10.38;;;9.07;;
64235;SDS011;50564;47.402;9.740;2022-07-22T02:16:03;12.07;;;10.07;;
64235;SDS011;50564;47.402;9.740;2022-07-22T02:21:04;12.00;;;9.32;;
64235;SDS011;50564;47.402;9.740;2022-07-22T02:26:05;11.80;;;9.73;;
64235;SDS011;50564;47.402;9.740;2022-07-22T02:31:05;12.80;;;10.20;;
64235;SDS011;50564;47.402;9.740;2022-07-22T02:36:07;10.50;;;9.00;;
64235;SDS011;50564;47.402;9.740;2022-07-22T02:41:09;11.35;;;8.95;;
64235;SDS011;50564;47.402;9.740;2022-07-22T02:46:14;11.48;;;9.43;;
64235;SDS011;50564;47.402;9.740;2022-07-22T02:51:15;11.23;;;9.50;;
64235;SDS011;50564;47.402;9.740;2022-07-22T02:56:16;13.57;;;10.00;;
64235;SDS011;50564;47.402;9.740;2022-07-22T03:01:18;11.57;;;9.82;;
64235;SDS011;50564;47.402;9.740;2022-07-22T03:06:25;12.43;;;11.07;;
64235;SDS011;50564;47.402;9.740;2022-07-22T03:11:41;10.85;;;9.75;;
64235;SDS011;50564;47.402;9.740;2022-07-22T03:16:42;12.60;;;9.73;;
64235;SDS011;50564;47.402;9.740;2022-07-22T03:21:43;12.88;;;9.43;;
64235;SDS011;50564;47.402;9.740;2022-07-22T03:26:44;11.40;;;9.10;;
64235;SDS011;50564;47.402;9.740;2022-07-22T03:31:45;14.98;;;9.25;;
64235;SDS011;50564;47.402;9.740;2022-07-22T03:36:46;11.30;;;9.52;;
64235;SDS011;50564;47.402;9.740;2022-07-22T03:41:46;11.80;;;8.75;;
64235;SDS011;50564;47.402;9.740;2022-07-22T03:46:47;10.13;;;8.75;;
64235;SDS011;50564;47.402;9.740;2022-07-22T03:51:49;12.27;;;8.75;;
64235;SDS011;50564;47.402;9.740;2022-07-22T03:56:50;11.27;;;9.65;;
64235;SDS011;50564;47.402;9.740;2022-07-22T04:01:50;10.88;;;9.05;;
64235;SDS011;50564;47.402;9.740;2022-07-22T04:06:51;11.15;;;10.05;;
64235;SDS011;50564;47.402;9.740;2022-07-22T04:11:57;12.82;;;9.68;;
64235;SDS011;50564;47.402;9.740;2022-07-22T04:17:00;12.68;;;9.98;;
64235;SDS011;50564;47.402;9.740;2022-07-22T04:22:00;12.57;;;10.27;;
64235;SDS011;50564;47.402;9.740;2022-07-22T04:27:03;11.13;;;9.15;;
64235;SDS011;50564;47.402;9.740;2022-07-22T04:32:03;11.90;;;9.88;;
64235;SDS011;50564;47.402;9.740;2022-07-22T04:37:04;11.65;;;9.40;;
64235;SDS011;50564;47.402;9.740;2022-07-22T04:42:09;13.05;;;10.25;;
64235;SDS011;50564;47.402;9.740;2022-07-22T04:47:17;11.23;;;10.13;;
64235;SDS011;50564;47.402;9.740;2022-07-22T04:52:19;11.30;;;10.10;;
64235;SDS011;50564;47.402;9.740;2022-07-22T04:57:22;12.13;;;10.82;;
64235;SDS011;50564;47.402;9.740;2022-07-22T05:02:24;13.48;;;11.35;;
64235;SDS011;50564;47.402;9.740;2022-07-22T05:07:25;11.18;;;9.98;;
64235;SDS011;50564;47.402;9.740;2022-07-22T05:12:25;11.30;;;10.10;;
64235;SDS011;50564;47.402;9.740;2022-07-22T05:17:26;12.95;;;10.27;;
64235;SDS011;50564;47.402;9.740;2022-07-22T05:22:38;15.68;;;11.85;;
64235;SDS011;50564;47.402;9.740;2022-07-22T05:27:52;19.95;;;14.35;;
64235;SDS011;50564;47.402;9.740;2022-07-22T05:32:58;15.85;;;13.88;;
64235;SDS011;50564;47.402;9.740;2022-07-22T05:38:19;15.85;;;12.43;;
64235;SDS011;50564;47.402;9.740;2022-07-22T05:43:20;15.35;;;12.88;;
64235;SDS011;50564;47.402;9.740;2022-07-22T05:48:20;17.85;;;13.93;;
64235;SDS011;50564;47.402;9.740;2022-07-22T05:53:21;14.55;;;11.95;;
64235;SDS011;50564;47.402;9.740;2022-07-22T05:58:22;14.93;;;12.13;;
64235;SDS011;50564;47.402;9.740;2022-07-22T06:03:23;13.02;;;11.73;;
64235;SDS011;50564;47.402;9.740;2022-07-22T06:08:23;13.43;;;11.95;;
64235;SDS011;50564;47.402;9.740;2022-07-22T06:13:25;13.40;;;11.57;;
64235;SDS011;50564;47.402;9.740;2022-07-22T06:18:26;11.43;;;10.20;;
64235;SDS011;50564;47.402;9.740;2022-07-22T06:23:27;14.05;;;9.95;;
64235;SDS011;50564;47.402;9.740;2022-07-22T06:28:28;15.27;;;12.18;;
64235;SDS011;50564;47.402;9.740;2022-07-22T06:33:29;15.73;;;14.10;;
64235;SDS011;50564;47.402;9.740;2022-07-22T06:38:31;14.77;;;13.02;;
64235;SDS011;50564;47.402;9.740;2022-07-22T06:43:50;16.00;;;14.40;;
64235;SDS011;50564;47.402;9.740;2022-07-22T06:49:23;16.38;;;13.27;;
64235;SDS011;50564;47.402;9.740;2022-07-22T06:54:24;15.63;;;12.93;;
64235;SDS011;50564;47.402;9.740;2022-07-22T06:59:28;16.27;;;14.57;;
64235;SDS011;50564;47.402;9.740;2022-07-22T07:04:30;14.55;;;12.32;;
64235;SDS011;50564;47.402;9.740;2022-07-22T07:09:31;16.45;;;13.65;;
64235;SDS011;50564;47.402;9.740;2022-07-22T07:14:51;16.70;;;13.25;;
64235;SDS011;50564;47.402;9.740;2022-07-22T07:19:52;13.77;;;12.02;;
64235;SDS011;50564;47.402;9.740;2022-07-22T07:24:53;15.98;;;12.57;;
64235;SDS011;50564;47.402;9.740;2022-07-22T07:29:53;14.35;;;12.95;;
64235;SDS011;50564;47.402;9.740;2022-07-22T07:34:57;17.58;;;12.43;;
64235;SDS011;50564;47.402;9.740;2022-07-22T07:39:58;13.45;;;12.00;;
64235;SDS011;50564;47.402;9.740;2022-07-22T07:44:59;15.43;;;13.40;;
64235;SDS011;50564;47.402;9.740;2022-07-22T07:50:03;15.18;;;12.73;;
64235;SDS011;50564;47.402;9.740;2022-07-22T07:55:05;14.48;;;12.48;;
64235;SDS011;50564;47.402;9.740;2022-07-22T08:00:10;16.13;;;13.65;;
64235;SDS011;50564;47.402;9.740;2022-07-22T08:05:16;14.05;;;12.52;;
64235;SDS011;50564;47.402;9.740;2022-07-22T08:10:20;18.65;;;13.90;;
64235;SDS011;50564;47.402;9.740;2022-07-22T08:15:35;14.27;;;12.80;;
64235;SDS011;50564;47.402;9.740;2022-07-22T08:20:45;14.43;;;12.80;;
64235;SDS011;50564;47.402;9.740;2022-07-22T08:25:52;17.08;;;12.75;;
64235;SDS011;50564;47.402;9.740;2022-07-22T08:30:54;13.48;;;11.45;;
64235;SDS011;50564;47.402;9.740;2022-07-22T08:35:55;12.93;;;11.63;;
64235;SDS011;50564;47.402;9.740;2022-07-22T08:40:56;13.02;;;11.57;;
64235;SDS011;50564;47.402;9.740;2022-07-22T08:45:57;15.45;;;12.05;;
64235;SDS011;50564;47.402;9.740;2022-07-22T08:51:01;16.90;;;12.90;;
64235;SDS011;50564;47.402;9.740;2022-07-22T08:56:11;12.88;;;11.55;;
64235;SDS011;50564;47.402;9.740;2022-07-22T09:01:14;15.82;;;11.63;;
64235;SDS011;50564;47.402;9.740;2022-07-22T09:06:25;12.60;;;11.23;;
64235;SDS011;50564;47.402;9.740;2022-07-22T09:11:29;13.52;;;12.23;;
64235;SDS011;50564;47.402;9.740;2022-07-22T09:16:47;12.85;;;11.60;;
64235;SDS011;50564;47.402;9.740;2022-07-22T09:22:02;12.85;;;11.55;;
64235;SDS011;50564;47.402;9.740;2022-07-22T09:27:28;13.38;;;11.40;;
64235;SDS011;50564;47.402;9.740;2022-07-22T09:33:02;13.60;;;12.18;;
64235;SDS011;50564;47.402;9.740;2022-07-22T09:38:12;13.05;;;11.65;;
64235;SDS011;50564;47.402;9.740;2022-07-22T09:43:15;15.35;;;12.02;;
64235;SDS011;50564;47.402;9.740;2022-07-22T09:48:18;13.88;;;10.57;;
64235;SDS011;50564;47.402;9.740;2022-07-22T09:53:24;12.05;;;10.90;;
64235;SDS011;50564;47.402;9.740;2022-07-22T09:58:46;11.90;;;10.70;;
64235;SDS011;50564;47.402;9.740;2022-07-22T10:03:57;12.75;;;11.50;;
64235;SDS011;50564;47.402;9.740;2022-07-22T10:08:58;12.80;;;11.45;;
64235;SDS011;50564;47.402;9.740;2022-07-22T10:13:59;11.80;;;10.65;;
64235;SDS011;50564;47.402;9.740;2022-07-22T10:19:01;13.05;;;10.68;;
64235;SDS011;50564;47.402;9.740;2022-07-22T10:29:23;13.10;;;11.48;;
64235;SDS011;50564;47.402;9.740;2022-07-22T10:34:25;13.38;;;10.80;;
64235;SDS011;50564;47.402;9.740;2022-07-22T10:39:26;13.60;;;11.07;;
64235;SDS011;50564;47.402;9.740;2022-07-22T10:49:46;11.63;;;10.43;;
64235;SDS011;50564;47.402;9.740;2022-07-22T11:00:26;11.13;;;9.57;;
64235;SDS011;50564;47.402;9.740;2022-07-22T11:05:27;13.27;;;10.20;;
64235;SDS011;50564;47.402;9.740;2022-07-22T11:10:30;11.57;;;9.82;;
64235;SDS011;50564;47.402;9.740;2022-07-22T11:15:31;11.60;;;10.40;;
64235;SDS011;50564;47.402;9.740;2022-07-22T11:20:31;13.43;;;12.02;;
64235;SDS011;50564;47.402;9.740;2022-07-22T11:25:32;13.23;;;11.93;;
64235;SDS011;50564;47.402;9.740;2022-07-22T11:30:33;13.20;;;11.90;;
64235;SDS011;50564;47.402;9.740;2022-07-22T11:35:33;12.07;;;10.73;;
64235;SDS011;50564;47.402;9.740;2022-07-22T11:40:34;16.25;;;11.73;;
64235;SDS011;50564;47.402;9.740;2022-07-22T11:45:35;12.25;;;11.05;;
64235;SDS011;50564;47.402;9.740;2022-07-22T11:50:35;13.65;;;12.20;;
64235;SDS011;50564;47.402;9.740;2022-07-22T11:55:38;11.70;;;9.98;;
64235;SDS011;50564;47.402;9.740;2022-07-22T12:00:41;10.25;;;9.25;;
64235;SDS011;50564;47.402;9.740;2022-07-22T12:05:55;10.85;;;9.75;;
64235;SDS011;50564;47.402;9.740;2022-07-22T12:10:59;13.07;;;10.52;;
64235;SDS011;50564;47.402;9.740;2022-07-22T12:16:00;12.93;;;9.73;;
64235;SDS011;50564;47.402;9.740;2022-07-22T12:21:19;10.57;;;8.82;;
64235;SDS011;50564;47.402;9.740;2022-07-22T12:26:44;9.88;;;8.23;;
64235;SDS011;50564;47.402;9.740;2022-07-22T12:31:47;8.57;;;7.57;;
64235;SDS011;50564;47.402;9.740;2022-07-22T12:36:56;8.88;;;7.85;;
64235;SDS011;50564;47.402;9.740;2022-07-22T12:41:57;9.25;;;8.35;;
64235;SDS011;50564;47.402;9.740;2022-07-22T12:46:57;8.52;;;7.55;;
64235;SDS011;50564;47.402;9.740;2022-07-22T12:52:12;8.88;;;7.57;;
64235;SDS011;50564;47.402;9.740;2022-07-22T12:57:14;8.63;;;7.68;;
64235;SDS011;50564;47.402;9.740;2022-07-22T13:02:15;7.93;;;6.72;;
64235;SDS011;50564;47.402;9.740;2022-07-22T13:07:15;8.68;;;7.78;;
64235;SDS011;50564;47.402;9.740;2022-07-22T13:12:16;8.68;;;7.85;;
64235;SDS011;50564;47.402;9.740;2022-07-22T13:17:17;8.48;;;7.40;;
64235;SDS011;50564;47.402;9.740;2022-07-22T13:22:19;8.30;;;7.37;;
64235;SDS011;50564;47.402;9.740;2022-07-22T13:27:20;7.03;;;6.30;;
64235;SDS011;50564;47.402;9.740;2022-07-22T13:32:21;8.90;;;7.10;;
64235;SDS011;50564;47.402;9.740;2022-07-22T13:37:22;8.95;;;6.75;;
64235;SDS011;50564;47.402;9.740;2022-07-22T13:42:22;7.70;;;6.90;;
64235;SDS011;50564;47.402;9.740;2022-07-22T13:47:23;7.82;;;7.00;;
64235;SDS011;50564;47.402;9.740;2022-07-22T13:52:24;7.88;;;7.00;;
64235;SDS011;50564;47.402;9.740;2022-07-22T13:57:25;8.77;;;7.88;;
64235;SDS011;50564;47.402;9.740;2022-07-22T14:02:25;8.85;;;7.10;;
64235;SDS011;50564;47.402;9.740;2022-07-22T14:07:26;8.65;;;7.07;;
64235;SDS011;50564;47.402;9.740;2022-07-22T14:12:27;8.70;;;7.13;;
64235;SDS011;50564;47.402;9.740;2022-07-22T14:17:28;7.25;;;5.90;;
64235;SDS011;50564;47.402;9.740;2022-07-22T14:22:28;7.53;;;6.13;;
64235;SDS011;50564;47.402;9.740;2022-07-22T14:27:30;9.18;;;6.53;;
64235;SDS011;50564;47.402;9.740;2022-07-22T14:32:31;7.97;;;6.85;;
64235;SDS011;50564;47.402;9.740;2022-07-22T14:37:32;9.23;;;6.47;;
64235;SDS011;50564;47.402;9.740;2022-07-22T14:42:32;8.07;;;6.60;;
64235;SDS011;50564;47.402;9.740;2022-07-22T14:47:33;7.25;;;5.78;;
64235;SDS011;50564;47.402;9.740;2022-07-22T14:52:34;7.00;;;6.30;;
64235;SDS011;50564;47.402;9.740;2022-07-22T14:57:35;7.20;;;5.70;;
64235;SDS011;50564;47.402;9.740;2022-07-22T15:02:36;6.72;;;5.57;;
64235;SDS011;50564;47.402;9.740;2022-07-22T15:07:36;6.07;;;5.47;;
64235;SDS011;50564;47.402;9.740;2022-07-22T15:12:37;7.43;;;5.93;;
64235;SDS011;50564;47.402;9.740;2022-07-22T15:17:38;7.88;;;5.30;;
64235;SDS011;50564;47.402;9.740;2022-07-22T15:22:39;7.93;;;5.32;;
64235;SDS011;50564;47.402;9.740;2022-07-22T15:27:39;8.68;;;5.65;;
64235;SDS011;50564;47.402;9.740;2022-07-22T15:32:40;8.93;;;5.60;;
64235;SDS011;50564;47.402;9.740;2022-07-22T15:37:40;6.38;;;5.55;;
64235;SDS011;50564;47.402;9.740;2022-07-22T15:42:41;6.18;;;5.55;;
64235;SDS011;50564;47.402;9.740;2022-07-22T15:47:42;7.20;;;5.38;;
64235;SDS011;50564;47.402;9.740;2022-07-22T15:52:42;5.80;;;5.28;;
64235;SDS011;50564;47.402;9.740;2022-07-22T15:57:43;6.80;;;5.18;;
64235;SDS011;50564;47.402;9.740;2022-07-22T16:03:02;8.80;;;5.65;;
64235;SDS011;50564;47.402;9.740;2022-07-22T16:08:03;6.55;;;5.47;;
64235;SDS011;50564;47.402;9.740;2022-07-22T16:13:03;7.47;;;5.60;;
64235;SDS011;50564;47.402;9.740;2022-07-22T16:18:04;6.30;;;5.05;;
64235;SDS011;50564;47.402;9.740;2022-07-22T16:23:05;7.22;;;5.05;;
64235;SDS011;50564;47.402;9.740;2022-07-22T16:28:05;6.03;;;5.05;;
64235;SDS011;50564;47.402;9.740;2022-07-22T16:33:06;7.57;;;5.25;;
64235;SDS011;50564;47.402;9.740;2022-07-22T16:38:07;5.90;;;4.85;;
64235;SDS011;50564;47.402;9.740;2022-07-22T16:43:07;6.40;;;5.47;;
64235;SDS011;50564;47.402;9.740;2022-07-22T16:48:08;7.03;;;5.03;;
64235;SDS011;50564;47.402;9.740;2022-07-22T16:53:09;7.15;;;5.18;;
64235;SDS011;50564;47.402;9.740;2022-07-22T16:58:09;7.65;;;5.78;;
64235;SDS011;50564;47.402;9.740;2022-07-22T17:03:10;5.97;;;5.38;;
64235;SDS011;50564;47.402;9.740;2022-07-22T17:08:11;6.53;;;5.70;;
64235;SDS011;50564;47.402;9.740;2022-07-22T17:13:12;8.77;;;6.20;;
64235;SDS011;50564;47.402;9.740;2022-07-22T17:18:12;8.43;;;5.93;;
64235;SDS011;50564;47.402;9.740;2022-07-22T17:23:13;6.55;;;5.93;;
64235;SDS011;50564;47.402;9.740;2022-07-22T17:28:14;8.13;;;6.30;;
64235;SDS011;50564;47.402;9.740;2022-07-22T17:33:14;9.20;;;6.63;;
64235;SDS011;50564;47.402;9.740;2022-07-22T17:38:15;8.23;;;6.93;;
64235;SDS011;50564;47.402;9.740;2022-07-22T17:43:16;9.30;;;7.35;;
64235;SDS011;50564;47.402;9.740;2022-07-22T17:48:17;7.90;;;6.75;;
64235;SDS011;50564;47.402;9.740;2022-07-22T17:53:17;8.98;;;6.70;;
64235;SDS011;50564;47.402;9.740;2022-07-22T17:58:18;8.63;;;7.72;;
64235;SDS011;50564;47.402;9.740;2022-07-22T18:03:18;8.32;;;7.53;;
64235;SDS011;50564;47.402;9.740;2022-07-22T18:08:19;9.60;;;8.18;;
64235;SDS011;50564;47.402;9.740;2022-07-22T18:13:20;8.07;;;7.28;;
64235;SDS011;50564;47.402;9.740;2022-07-22T18:18:20;8.07;;;7.28;;
64235;SDS011;50564;47.402;9.740;2022-07-22T18:23:21;9.02;;;7.22;;
64235;SDS011;50564;47.402;9.740;2022-07-22T18:28:22;9.02;;;7.60;;
64235;SDS011;50564;47.402;9.740;2022-07-22T18:33:23;8.70;;;7.80;;
64235;SDS011;50564;47.402;9.740;2022-07-22T18:38:24;9.70;;;7.78;;
64235;SDS011;50564;47.402;9.740;2022-07-22T18:43:24;9.95;;;8.35;;
64235;SDS011;50564;47.402;9.740;2022-07-22T18:48:25;11.70;;;8.27;;
64235;SDS011;50564;47.402;9.740;2022-07-22T18:53:25;11.32;;;8.30;;
64235;SDS011;50564;47.402;9.740;2022-07-22T18:58:26;9.35;;;8.00;;
64235;SDS011;50564;47.402;9.740;2022-07-22T19:03:27;8.23;;;7.40;;
64235;SDS011;50564;47.402;9.740;2022-07-22T19:08:27;9.73;;;8.43;;
64235;SDS011;50564;47.402;9.740;2022-07-22T19:13:28;8.43;;;7.53;;
64235;SDS011;50564;47.402;9.740;2022-07-22T19:18:29;8.63;;;7.57;;
64235;SDS011;50564;47.402;9.740;2022-07-22T19:23:29;9.75;;;7.90;;
64235;SDS011;50564;47.402;9.740;2022-07-22T19:28:30;10.93;;;8.70;;
64235;SDS011;50564;47.402;9.740;2022-07-22T19:33:31;9.75;;;8.60;;
64235;SDS011;50564;47.402;9.740;2022-07-22T19:38:31;9.52;;;8.52;;
64235;SDS011;50564;47.402;9.740;2022-07-22T19:43:32;10.07;;;8.75;;
64235;SDS011;50564;47.402;9.740;2022-07-22T19:48:33;10.90;;;8.55;;
64235;SDS011;50564;47.402;9.740;2022-07-22T19:53:34;10.38;;;8.88;;
64235;SDS011;50564;47.402;9.740;2022-07-22T19:58:34;9.88;;;8.85;;
64235;SDS011;50564;47.402;9.740;2022-07-22T20:03:36;10.52;;;8.20;;
64235;SDS011;50564;47.402;9.740;2022-07-22T20:08:37;10.30;;;8.70;;
64235;SDS011;50564;47.402;9.740;2022-07-22T20:13:37;9.85;;;8.85;;
64235;SDS011;50564;47.402;9.740;2022-07-22T20:18:38;9.82;;;8.52;;
64235;SDS011;50564;47.402;9.740;2022-07-22T20:23:38;15.60;;;10.18;;
64235;SDS011;50564;47.402;9.740;2022-07-22T20:28:39;12.18;;;9.25;;
64235;SDS011;50564;47.402;9.740;2022-07-22T20:33:40;11.00;;;9.55;;
64235;SDS011;50564;47.402;9.740;2022-07-22T20:38:40;11.90;;;9.65;;
64235;SDS011;50564;47.402;9.740;2022-07-22T20:43:41;10.30;;;9.30;;
64235;SDS011;50564;47.402;9.740;2022-07-22T20:48:41;18.20;;;10.63;;
64235;SDS011;50564;47.402;9.740;2022-07-22T20:53:42;13.75;;;9.45;;
64235;SDS011;50564;47.402;9.740;2022-07-22T20:58:43;14.40;;;10.30;;
64235;SDS011;50564;47.402;9.740;2022-07-22T21:03:43;11.57;;;10.05;;
64235;SDS011;50564;47.402;9.740;2022-07-22T21:08:44;15.65;;;10.85;;
64235;SDS011;50564;47.402;9.740;2022-07-22T21:13:47;13.95;;;10.75;;
64235;SDS011;50564;47.402;9.740;2022-07-22T21:18:49;11.15;;;9.70;;
64235;SDS011;50564;47.402;9.740;2022-07-22T21:23:49;13.57;;;10.48;;
64235;SDS011;50564;47.402;9.740;2022-07-22T21:28:50;10.95;;;9.73;;
64235;SDS011;50564;47.402;9.740;2022-07-22T21:33:50;10.00;;;9.02;;
64235;SDS011;50564;47.402;9.740;2022-07-22T21:38:51;10.73;;;9.63;;
64235;SDS011;50564;47.402;9.740;2022-07-22T21:43:52;10.38;;;9.23;;
64235;SDS011;50564;47.402;9.740;2022-07-22T21:48:52;10.35;;;8.48;;
64235;SDS011;50564;47.402;9.740;2022-07-22T21:53:53;10.63;;;9.20;;
64235;SDS011;50564;47.402;9.740;2022-07-22T21:58:53;14.10;;;9.55;;
64235;SDS011;50564;47.402;9.740;2022-07-22T22:03:55;11.15;;;9.20;;
64235;SDS011;50564;47.402;9.740;2022-07-22T22:08:56;11.05;;;9.05;;
64235;SDS011;50564;47.402;9.740;2022-07-22T22:13:57;11.10;;;9.15;;
64235;SDS011;50564;47.402;9.740;2022-07-22T22:18:57;13.73;;;9.95;;
64235;SDS011;50564;47.402;9.740;2022-07-22T22:23:58;11.52;;;8.80;;
64235;SDS011;50564;47.402;9.740;2022-07-22T22:28:59;10.65;;;9.35;;
64235;SDS011;50564;47.402;9.740;2022-07-22T22:34:00;11.13;;;9.18;;
64235;SDS011;50564;47.402;9.740;2022-07-22T22:39:02;10.98;;;8.57;;
64235;SDS011;50564;47.402;9.740;2022-07-22T22:44:03;11.10;;;8.68;;
64235;SDS011;50564;47.402;9.740;2022-07-22T22:49:03;9.57;;;7.93;;
64235;SDS011;50564;47.402;9.740;2022-07-22T22:54:04;9.23;;;7.88;;
64235;SDS011;50564;47.402;9.740;2022-07-22T22:59:05;8.63;;;7.13;;
64235;SDS011;50564;47.402;9.740;2022-07-22T23:04:05;11.98;;;8.95;;
64235;SDS011;50564;47.402;9.740;2022-07-22T23:09:06;8.77;;;7.53;;
64235;SDS011;50564;47.402;9.740;2022-07-22T23:14:07;8.07;;;7.05;;
64235;SDS011;50564;47.402;9.740;2022-07-22T23:19:07;8.52;;;7.30;;
64235;SDS011;50564;47.402;9.740;2022-07-22T23:24:08;9.73;;;7.82;;
64235;SDS011;50564;47.402;9.740;2022-07-22T23:29:08;9.82;;;8.23;;
64235;SDS011;50564;47.402;9.740;2022-07-22T23:34:09;10.77;;;8.65;;
64235;SDS011;50564;47.402;9.740;2022-07-22T23:39:10;9.30;;;7.22;;
64235;SDS011;50564;47.402;9.740;2022-07-22T23:44:10;8.95;;;7.88;;
64235;SDS011;50564;47.402;9.740;2022-07-22T23:49:11;13.95;;;9.40;;
64235;SDS011;50564;47.402;9.740;2022-07-22T23:54:12;14.13;;;9.70;;
64235;SDS011;50564;47.402;9.740;2022-07-22T23:59:12;10.95;;;8.73;;
